Topeka, Mississippi
Current Conditions -  °F | °C
As of 9:15 AM on Wednesday 22 Oct 2014 (Local Time) from K1R7 Reporting Station
Clear Clear  
Wind Chill: 61°   Ceiling: Unl
Heat Index: 61°   Visibility: 10mi
Dew Point: 54°   Wind: 3mph
Humidity: 77%   Direction: 30°NNE
Pressure: 30.16"   Gusts: NA
Location:  31.4096°N, 90.1856°W
Report Text: K1R7 221415Z AUTO 03003KT 10SM CLR 16/12 A3016 RMK AO2
Loading
Personal Weather Stations






























Interactive Weather Map
Tropical Storm Tracking
New forecast layout! Learn more

10-Day Weather Forecast

Advertisements
Track Severe Weather on mobile